sensor_id;sensor_type;location;lat;lon;timestamp;P1;durP1;ratioP1;P2;durP2;ratioP2
58123;SDS011;46725;48.068;20.832;2022-08-21T00:01:57;9.13;;;4.30;;
58123;SDS011;46725;48.068;20.832;2022-08-21T00:04:23;7.60;;;4.05;;
58123;SDS011;46725;48.068;20.832;2022-08-21T00:06:50;9.35;;;3.90;;
58123;SDS011;46725;48.068;20.832;2022-08-21T00:09:17;11.10;;;3.72;;
58123;SDS011;46725;48.068;20.832;2022-08-21T00:11:43;8.80;;;3.90;;
58123;SDS011;46725;48.068;20.832;2022-08-21T00:14:11;6.85;;;3.53;;
58123;SDS011;46725;48.068;20.832;2022-08-21T00:16:37;9.43;;;4.15;;
58123;SDS011;46725;48.068;20.832;2022-08-21T00:19:03;8.90;;;3.83;;
58123;SDS011;46725;48.068;20.832;2022-08-21T00:21:30;12.50;;;3.88;;
58123;SDS011;46725;48.068;20.832;2022-08-21T00:23:56;9.75;;;3.95;;
58123;SDS011;46725;48.068;20.832;2022-08-21T00:26:22;8.52;;;3.85;;
58123;SDS011;46725;48.068;20.832;2022-08-21T00:28:48;12.18;;;4.22;;
58123;SDS011;46725;48.068;20.832;2022-08-21T00:31:15;6.68;;;3.65;;
58123;SDS011;46725;48.068;20.832;2022-08-21T00:33:41;7.85;;;3.90;;
58123;SDS011;46725;48.068;20.832;2022-08-21T00:36:08;7.63;;;4.20;;
58123;SDS011;46725;48.068;20.832;2022-08-21T00:38:35;8.40;;;3.78;;
58123;SDS011;46725;48.068;20.832;2022-08-21T00:41:02;11.63;;;4.28;;
58123;SDS011;46725;48.068;20.832;2022-08-21T00:43:30;12.93;;;3.55;;
58123;SDS011;46725;48.068;20.832;2022-08-21T00:45:56;8.75;;;3.70;;
58123;SDS011;46725;48.068;20.832;2022-08-21T00:48:23;9.52;;;3.60;;
58123;SDS011;46725;48.068;20.832;2022-08-21T00:51:24;8.02;;;3.67;;
58123;SDS011;46725;48.068;20.832;2022-08-21T00:53:47;9.55;;;4.57;;
58123;SDS011;46725;48.068;20.832;2022-08-21T00:56:14;7.35;;;3.88;;
58123;SDS011;46725;48.068;20.832;2022-08-21T00:58:41;6.72;;;3.78;;
58123;SDS011;46725;48.068;20.832;2022-08-21T01:01:08;10.77;;;4.53;;
58123;SDS011;46725;48.068;20.832;2022-08-21T01:03:35;9.07;;;3.88;;
58123;SDS011;46725;48.068;20.832;2022-08-21T01:06:01;7.47;;;4.10;;
58123;SDS011;46725;48.068;20.832;2022-08-21T01:08:29;7.25;;;3.53;;
58123;SDS011;46725;48.068;20.832;2022-08-21T01:10:56;7.85;;;3.72;;
58123;SDS011;46725;48.068;20.832;2022-08-21T01:13:22;9.40;;;4.35;;
58123;SDS011;46725;48.068;20.832;2022-08-21T01:15:50;8.25;;;3.72;;
58123;SDS011;46725;48.068;20.832;2022-08-21T01:18:19;13.38;;;4.00;;
58123;SDS011;46725;48.068;20.832;2022-08-21T01:23:30;7.13;;;4.13;;
58123;SDS011;46725;48.068;20.832;2022-08-21T01:25:56;9.88;;;4.25;;
58123;SDS011;46725;48.068;20.832;2022-08-21T01:28:23;9.23;;;4.68;;
58123;SDS011;46725;48.068;20.832;2022-08-21T01:30:50;9.70;;;4.65;;
58123;SDS011;46725;48.068;20.832;2022-08-21T01:33:20;7.90;;;4.15;;
58123;SDS011;46725;48.068;20.832;2022-08-21T01:35:47;9.77;;;4.80;;
58123;SDS011;46725;48.068;20.832;2022-08-21T01:38:14;10.27;;;3.90;;
58123;SDS011;46725;48.068;20.832;2022-08-21T01:40:40;7.75;;;3.88;;
58123;SDS011;46725;48.068;20.832;2022-08-21T01:43:06;8.73;;;4.20;;
58123;SDS011;46725;48.068;20.832;2022-08-21T01:45:32;8.52;;;4.18;;
58123;SDS011;46725;48.068;20.832;2022-08-21T01:47:58;12.00;;;4.90;;
58123;SDS011;46725;48.068;20.832;2022-08-21T01:50:24;9.75;;;4.28;;
58123;SDS011;46725;48.068;20.832;2022-08-21T01:52:50;8.45;;;4.03;;
58123;SDS011;46725;48.068;20.832;2022-08-21T01:55:18;10.52;;;4.45;;
58123;SDS011;46725;48.068;20.832;2022-08-21T01:57:44;8.45;;;4.55;;
58123;SDS011;46725;48.068;20.832;2022-08-21T02:00:12;10.80;;;4.45;;
58123;SDS011;46725;48.068;20.832;2022-08-21T02:02:38;11.07;;;4.80;;
58123;SDS011;46725;48.068;20.832;2022-08-21T02:05:06;8.40;;;3.88;;
58123;SDS011;46725;48.068;20.832;2022-08-21T02:07:39;9.18;;;4.45;;
58123;SDS011;46725;48.068;20.832;2022-08-21T02:10:07;8.30;;;4.85;;
58123;SDS011;46725;48.068;20.832;2022-08-21T02:12:34;11.65;;;5.15;;
58123;SDS011;46725;48.068;20.832;2022-08-21T02:15:00;9.00;;;4.45;;
58123;SDS011;46725;48.068;20.832;2022-08-21T02:17:26;10.05;;;5.18;;
58123;SDS011;46725;48.068;20.832;2022-08-21T02:19:52;9.57;;;4.60;;
58123;SDS011;46725;48.068;20.832;2022-08-21T02:22:18;12.52;;;4.13;;
58123;SDS011;46725;48.068;20.832;2022-08-21T02:24:44;12.38;;;4.78;;
58123;SDS011;46725;48.068;20.832;2022-08-21T02:27:10;7.65;;;4.50;;
58123;SDS011;46725;48.068;20.832;2022-08-21T02:29:36;12.55;;;4.97;;
58123;SDS011;46725;48.068;20.832;2022-08-21T02:32:02;9.05;;;4.65;;
58123;SDS011;46725;48.068;20.832;2022-08-21T02:34:28;13.18;;;4.80;;
58123;SDS011;46725;48.068;20.832;2022-08-21T02:36:54;10.02;;;5.40;;
58123;SDS011;46725;48.068;20.832;2022-08-21T02:39:21;8.60;;;4.75;;
58123;SDS011;46725;48.068;20.832;2022-08-21T02:41:47;9.57;;;4.20;;
58123;SDS011;46725;48.068;20.832;2022-08-21T02:44:13;10.27;;;5.03;;
58123;SDS011;46725;48.068;20.832;2022-08-21T02:46:39;10.63;;;5.45;;
58123;SDS011;46725;48.068;20.832;2022-08-21T02:49:05;11.77;;;4.93;;
58123;SDS011;46725;48.068;20.832;2022-08-21T02:51:31;10.07;;;4.97;;
58123;SDS011;46725;48.068;20.832;2022-08-21T02:53:57;10.63;;;5.22;;
58123;SDS011;46725;48.068;20.832;2022-08-21T02:56:23;13.20;;;5.82;;
58123;SDS011;46725;48.068;20.832;2022-08-21T02:58:50;12.88;;;5.45;;
58123;SDS011;46725;48.068;20.832;2022-08-21T03:01:17;9.05;;;4.85;;
58123;SDS011;46725;48.068;20.832;2022-08-21T03:03:45;10.50;;;4.60;;
58123;SDS011;46725;48.068;20.832;2022-08-21T03:06:12;8.25;;;5.22;;
58123;SDS011;46725;48.068;20.832;2022-08-21T03:08:39;8.88;;;4.75;;
58123;SDS011;46725;48.068;20.832;2022-08-21T03:11:05;12.13;;;5.38;;
58123;SDS011;46725;48.068;20.832;2022-08-21T03:13:31;7.75;;;4.68;;
58123;SDS011;46725;48.068;20.832;2022-08-21T03:15:57;11.23;;;5.47;;
58123;SDS011;46725;48.068;20.832;2022-08-21T03:18:23;11.00;;;5.55;;
58123;SDS011;46725;48.068;20.832;2022-08-21T03:20:49;11.95;;;5.72;;
58123;SDS011;46725;48.068;20.832;2022-08-21T03:23:16;15.15;;;6.00;;
58123;SDS011;46725;48.068;20.832;2022-08-21T03:25:42;9.98;;;6.05;;
58123;SDS011;46725;48.068;20.832;2022-08-21T03:28:10;13.05;;;6.95;;
58123;SDS011;46725;48.068;20.832;2022-08-21T03:30:37;14.65;;;6.78;;
58123;SDS011;46725;48.068;20.832;2022-08-21T03:33:03;14.27;;;6.90;;
58123;SDS011;46725;48.068;20.832;2022-08-21T03:35:29;18.70;;;7.47;;
58123;SDS011;46725;48.068;20.832;2022-08-21T03:37:55;10.57;;;6.80;;
58123;SDS011;46725;48.068;20.832;2022-08-21T03:40:22;14.15;;;7.13;;
58123;SDS011;46725;48.068;20.832;2022-08-21T03:42:49;12.90;;;7.13;;
58123;SDS011;46725;48.068;20.832;2022-08-21T03:45:16;12.52;;;6.35;;
58123;SDS011;46725;48.068;20.832;2022-08-21T03:47:59;14.00;;;6.72;;
58123;SDS011;46725;48.068;20.832;2022-08-21T03:50:26;13.85;;;6.93;;
58123;SDS011;46725;48.068;20.832;2022-08-21T03:52:52;13.40;;;6.90;;
58123;SDS011;46725;48.068;20.832;2022-08-21T03:55:18;12.02;;;6.72;;
58123;SDS011;46725;48.068;20.832;2022-08-21T03:57:45;14.80;;;7.20;;
58123;SDS011;46725;48.068;20.832;2022-08-21T04:00:11;13.88;;;6.78;;
58123;SDS011;46725;48.068;20.832;2022-08-21T04:02:38;13.35;;;6.60;;
58123;SDS011;46725;48.068;20.832;2022-08-21T04:05:05;12.07;;;7.07;;
58123;SDS011;46725;48.068;20.832;2022-08-21T04:07:31;10.77;;;6.13;;
58123;SDS011;46725;48.068;20.832;2022-08-21T04:09:57;13.68;;;7.57;;
58123;SDS011;46725;48.068;20.832;2022-08-21T04:12:23;10.65;;;5.82;;
58123;SDS011;46725;48.068;20.832;2022-08-21T04:14:50;12.27;;;6.00;;
58123;SDS011;46725;48.068;20.832;2022-08-21T04:17:16;14.18;;;6.35;;
58123;SDS011;46725;48.068;20.832;2022-08-21T04:19:42;13.38;;;6.13;;
58123;SDS011;46725;48.068;20.832;2022-08-21T04:22:08;13.02;;;6.35;;
58123;SDS011;46725;48.068;20.832;2022-08-21T04:24:34;9.88;;;5.75;;
58123;SDS011;46725;48.068;20.832;2022-08-21T04:27:00;9.88;;;5.72;;
58123;SDS011;46725;48.068;20.832;2022-08-21T04:29:27;12.68;;;5.45;;
58123;SDS011;46725;48.068;20.832;2022-08-21T04:31:53;11.15;;;5.78;;
58123;SDS011;46725;48.068;20.832;2022-08-21T04:34:19;9.45;;;5.90;;
58123;SDS011;46725;48.068;20.832;2022-08-21T04:36:45;12.68;;;5.72;;
58123;SDS011;46725;48.068;20.832;2022-08-21T04:39:11;9.98;;;5.70;;
58123;SDS011;46725;48.068;20.832;2022-08-21T04:41:37;10.55;;;6.60;;
58123;SDS011;46725;48.068;20.832;2022-08-21T04:44:04;11.10;;;5.97;;
58123;SDS011;46725;48.068;20.832;2022-08-21T04:46:31;11.15;;;6.70;;
58123;SDS011;46725;48.068;20.832;2022-08-21T04:48:57;11.27;;;6.20;;
58123;SDS011;46725;48.068;20.832;2022-08-21T04:51:24;17.67;;;6.47;;
58123;SDS011;46725;48.068;20.832;2022-08-21T04:56:31;11.38;;;5.72;;
58123;SDS011;46725;48.068;20.832;2022-08-21T04:58:58;12.30;;;6.28;;
58123;SDS011;46725;48.068;20.832;2022-08-21T05:01:29;8.68;;;4.95;;
58123;SDS011;46725;48.068;20.832;2022-08-21T05:03:56;12.18;;;5.75;;
58123;SDS011;46725;48.068;20.832;2022-08-21T05:06:24;12.30;;;5.75;;
58123;SDS011;46725;48.068;20.832;2022-08-21T05:08:51;10.60;;;5.95;;
58123;SDS011;46725;48.068;20.832;2022-08-21T05:11:18;8.13;;;4.70;;
58123;SDS011;46725;48.068;20.832;2022-08-21T05:13:45;10.20;;;5.25;;
58123;SDS011;46725;48.068;20.832;2022-08-21T05:16:11;7.82;;;4.40;;
58123;SDS011;46725;48.068;20.832;2022-08-21T05:18:38;10.27;;;4.65;;
58123;SDS011;46725;48.068;20.832;2022-08-21T05:21:04;11.65;;;5.50;;
58123;SDS011;46725;48.068;20.832;2022-08-21T05:23:30;8.55;;;4.95;;
58123;SDS011;46725;48.068;20.832;2022-08-21T05:25:56;15.30;;;4.80;;
58123;SDS011;46725;48.068;20.832;2022-08-21T05:28:23;10.52;;;4.88;;
58123;SDS011;46725;48.068;20.832;2022-08-21T05:30:49;11.25;;;5.53;;
58123;SDS011;46725;48.068;20.832;2022-08-21T05:33:16;9.52;;;5.65;;
58123;SDS011;46725;48.068;20.832;2022-08-21T05:35:42;8.10;;;5.20;;
58123;SDS011;46725;48.068;20.832;2022-08-21T05:38:08;11.32;;;5.40;;
58123;SDS011;46725;48.068;20.832;2022-08-21T05:40:34;10.68;;;5.72;;
58123;SDS011;46725;48.068;20.832;2022-08-21T05:43:00;13.63;;;5.30;;
58123;SDS011;46725;48.068;20.832;2022-08-21T05:45:27;7.63;;;5.43;;
58123;SDS011;46725;48.068;20.832;2022-08-21T05:47:54;11.38;;;5.43;;
58123;SDS011;46725;48.068;20.832;2022-08-21T05:50:20;13.02;;;5.88;;
58123;SDS011;46725;48.068;20.832;2022-08-21T05:52:46;9.63;;;6.03;;
58123;SDS011;46725;48.068;20.832;2022-08-21T05:55:12;11.15;;;5.55;;
58123;SDS011;46725;48.068;20.832;2022-08-21T05:57:38;13.18;;;6.28;;
58123;SDS011;46725;48.068;20.832;2022-08-21T06:00:06;14.70;;;6.30;;
58123;SDS011;46725;48.068;20.832;2022-08-21T06:02:34;10.63;;;5.15;;
58123;SDS011;46725;48.068;20.832;2022-08-21T06:05:00;8.45;;;5.07;;
58123;SDS011;46725;48.068;20.832;2022-08-21T06:07:26;8.80;;;5.18;;
58123;SDS011;46725;48.068;20.832;2022-08-21T06:09:53;12.25;;;5.60;;
58123;SDS011;46725;48.068;20.832;2022-08-21T06:12:19;8.57;;;5.40;;
58123;SDS011;46725;48.068;20.832;2022-08-21T06:14:45;9.50;;;5.65;;
58123;SDS011;46725;48.068;20.832;2022-08-21T06:17:12;10.70;;;5.40;;
58123;SDS011;46725;48.068;20.832;2022-08-21T06:19:39;12.60;;;5.30;;
58123;SDS011;46725;48.068;20.832;2022-08-21T06:22:05;15.98;;;5.18;;
58123;SDS011;46725;48.068;20.832;2022-08-21T06:24:32;8.80;;;5.28;;
58123;SDS011;46725;48.068;20.832;2022-08-21T06:27:03;9.68;;;5.13;;
58123;SDS011;46725;48.068;20.832;2022-08-21T06:29:29;10.05;;;5.25;;
58123;SDS011;46725;48.068;20.832;2022-08-21T06:31:55;9.48;;;5.10;;
58123;SDS011;46725;48.068;20.832;2022-08-21T06:34:21;9.80;;;5.47;;
58123;SDS011;46725;48.068;20.832;2022-08-21T06:36:47;9.68;;;5.13;;
58123;SDS011;46725;48.068;20.832;2022-08-21T06:39:13;9.57;;;5.28;;
58123;SDS011;46725;48.068;20.832;2022-08-21T06:41:39;11.77;;;5.50;;
58123;SDS011;46725;48.068;20.832;2022-08-21T06:44:05;14.48;;;6.07;;
58123;SDS011;46725;48.068;20.832;2022-08-21T06:46:31;10.65;;;5.43;;
58123;SDS011;46725;48.068;20.832;2022-08-21T06:48:58;14.50;;;6.25;;
58123;SDS011;46725;48.068;20.832;2022-08-21T06:51:25;10.30;;;5.43;;
58123;SDS011;46725;48.068;20.832;2022-08-21T06:53:52;10.73;;;5.28;;
58123;SDS011;46725;48.068;20.832;2022-08-21T06:56:18;7.80;;;4.50;;
58123;SDS011;46725;48.068;20.832;2022-08-21T06:58:44;8.07;;;4.18;;
58123;SDS011;46725;48.068;20.832;2022-08-21T07:01:11;9.95;;;4.10;;
58123;SDS011;46725;48.068;20.832;2022-08-21T07:03:38;10.98;;;4.80;;
58123;SDS011;46725;48.068;20.832;2022-08-21T07:06:05;7.95;;;4.45;;
58123;SDS011;46725;48.068;20.832;2022-08-21T07:08:31;9.48;;;3.97;;
58123;SDS011;46725;48.068;20.832;2022-08-21T07:10:58;9.82;;;4.13;;
58123;SDS011;46725;48.068;20.832;2022-08-21T07:13:25;11.10;;;4.65;;
58123;SDS011;46725;48.068;20.832;2022-08-21T07:15:51;9.68;;;4.20;;
58123;SDS011;46725;48.068;20.832;2022-08-21T07:18:17;10.05;;;4.25;;
58123;SDS011;46725;48.068;20.832;2022-08-21T07:20:43;11.82;;;5.00;;
58123;SDS011;46725;48.068;20.832;2022-08-21T07:23:11;11.07;;;5.13;;
58123;SDS011;46725;48.068;20.832;2022-08-21T07:25:38;8.50;;;4.40;;
58123;SDS011;46725;48.068;20.832;2022-08-21T07:28:04;7.32;;;3.83;;
58123;SDS011;46725;48.068;20.832;2022-08-21T07:30:30;8.90;;;3.70;;
58123;SDS011;46725;48.068;20.832;2022-08-21T07:32:56;10.23;;;4.43;;
58123;SDS011;46725;48.068;20.832;2022-08-21T07:35:22;11.45;;;4.90;;
58123;SDS011;46725;48.068;20.832;2022-08-21T07:37:49;10.55;;;4.35;;
58123;SDS011;46725;48.068;20.832;2022-08-21T07:40:15;9.35;;;4.30;;
58123;SDS011;46725;48.068;20.832;2022-08-21T07:42:43;11.90;;;5.03;;
58123;SDS011;46725;48.068;20.832;2022-08-21T07:45:09;13.10;;;3.88;;
58123;SDS011;46725;48.068;20.832;2022-08-21T07:47:35;7.50;;;4.00;;
58123;SDS011;46725;48.068;20.832;2022-08-21T07:50:02;11.25;;;4.72;;
58123;SDS011;46725;48.068;20.832;2022-08-21T07:52:29;11.85;;;3.97;;
58123;SDS011;46725;48.068;20.832;2022-08-21T07:54:55;7.20;;;3.72;;
58123;SDS011;46725;48.068;20.832;2022-08-21T07:57:21;16.30;;;7.78;;
58123;SDS011;46725;48.068;20.832;2022-08-21T07:59:47;14.48;;;8.70;;
58123;SDS011;46725;48.068;20.832;2022-08-21T08:02:26;8.50;;;3.60;;
58123;SDS011;46725;48.068;20.832;2022-08-21T08:04:52;7.10;;;3.30;;
58123;SDS011;46725;48.068;20.832;2022-08-21T08:07:18;6.90;;;3.70;;
58123;SDS011;46725;48.068;20.832;2022-08-21T08:09:45;8.25;;;4.13;;
58123;SDS011;46725;48.068;20.832;2022-08-21T08:12:11;9.35;;;4.07;;
58123;SDS011;46725;48.068;20.832;2022-08-21T08:14:37;6.30;;;3.55;;
58123;SDS011;46725;48.068;20.832;2022-08-21T08:17:03;11.25;;;4.20;;
58123;SDS011;46725;48.068;20.832;2022-08-21T08:19:29;13.57;;;5.10;;
58123;SDS011;46725;48.068;20.832;2022-08-21T08:21:55;11.20;;;4.50;;
58123;SDS011;46725;48.068;20.832;2022-08-21T08:24:21;8.57;;;4.07;;
58123;SDS011;46725;48.068;20.832;2022-08-21T08:26:47;9.98;;;4.68;;
58123;SDS011;46725;48.068;20.832;2022-08-21T08:29:13;7.72;;;3.85;;
58123;SDS011;46725;48.068;20.832;2022-08-21T08:31:40;10.88;;;4.95;;
58123;SDS011;46725;48.068;20.832;2022-08-21T08:34:06;9.48;;;4.47;;
58123;SDS011;46725;48.068;20.832;2022-08-21T08:36:35;8.30;;;4.25;;
58123;SDS011;46725;48.068;20.832;2022-08-21T08:39:02;10.02;;;5.00;;
58123;SDS011;46725;48.068;20.832;2022-08-21T08:41:29;13.07;;;5.15;;
58123;SDS011;46725;48.068;20.832;2022-08-21T08:44:00;11.90;;;5.78;;
58123;SDS011;46725;48.068;20.832;2022-08-21T08:46:46;9.30;;;4.80;;
58123;SDS011;46725;48.068;20.832;2022-08-21T08:49:23;10.95;;;4.90;;
58123;SDS011;46725;48.068;20.832;2022-08-21T08:54:21;8.35;;;4.75;;
58123;SDS011;46725;48.068;20.832;2022-08-21T08:56:50;9.02;;;4.35;;
58123;SDS011;46725;48.068;20.832;2022-08-21T08:59:20;8.82;;;4.72;;
58123;SDS011;46725;48.068;20.832;2022-08-21T09:01:48;6.10;;;3.58;;
58123;SDS011;46725;48.068;20.832;2022-08-21T09:04:17;5.93;;;3.42;;
58123;SDS011;46725;48.068;20.832;2022-08-21T09:19:54;10.35;;;3.67;;
58123;SDS011;46725;48.068;20.832;2022-08-21T09:27:17;7.72;;;3.60;;
58123;SDS011;46725;48.068;20.832;2022-08-21T09:29:44;11.73;;;4.22;;
58123;SDS011;46725;48.068;20.832;2022-08-21T09:32:22;6.43;;;3.47;;
58123;SDS011;46725;48.068;20.832;2022-08-21T09:34:59;8.20;;;4.40;;
58123;SDS011;46725;48.068;20.832;2022-08-21T09:37:27;7.15;;;4.10;;
58123;SDS011;46725;48.068;20.832;2022-08-21T09:39:57;9.43;;;4.38;;
58123;SDS011;46725;48.068;20.832;2022-08-21T09:42:28;9.15;;;4.05;;
58123;SDS011;46725;48.068;20.832;2022-08-21T09:45:14;8.82;;;4.97;;
58123;SDS011;46725;48.068;20.832;2022-08-21T09:47:41;8.10;;;4.88;;
58123;SDS011;46725;48.068;20.832;2022-08-21T09:50:09;11.90;;;5.13;;
58123;SDS011;46725;48.068;20.832;2022-08-21T09:52:41;8.55;;;4.75;;
58123;SDS011;46725;48.068;20.832;2022-08-21T09:55:08;10.18;;;5.07;;
58123;SDS011;46725;48.068;20.832;2022-08-21T09:58:00;10.00;;;4.82;;
58123;SDS011;46725;48.068;20.832;2022-08-21T10:00:30;10.13;;;5.32;;
58123;SDS011;46725;48.068;20.832;2022-08-21T10:05:53;8.77;;;5.35;;
58123;SDS011;46725;48.068;20.832;2022-08-21T10:08:20;7.97;;;4.25;;
58123;SDS011;46725;48.068;20.832;2022-08-21T10:10:50;10.40;;;5.50;;
58123;SDS011;46725;48.068;20.832;2022-08-21T10:21:23;10.60;;;5.13;;
58123;SDS011;46725;48.068;20.832;2022-08-21T10:34:20;12.30;;;5.72;;
58123;SDS011;46725;48.068;20.832;2022-08-21T10:39:28;13.55;;;5.75;;
58123;SDS011;46725;48.068;20.832;2022-08-21T10:49:45;10.00;;;5.15;;
58123;SDS011;46725;48.068;20.832;2022-08-21T10:55:02;10.23;;;5.70;;
58123;SDS011;46725;48.068;20.832;2022-08-21T10:57:39;14.98;;;6.43;;
58123;SDS011;46725;48.068;20.832;2022-08-21T11:00:09;9.98;;;5.20;;
58123;SDS011;46725;48.068;20.832;2022-08-21T11:02:40;13.30;;;6.05;;
58123;SDS011;46725;48.068;20.832;2022-08-21T11:05:21;12.73;;;6.03;;
58123;SDS011;46725;48.068;20.832;2022-08-21T11:07:52;11.18;;;5.90;;
58123;SDS011;46725;48.068;20.832;2022-08-21T11:12:56;9.75;;;5.88;;
58123;SDS011;46725;48.068;20.832;2022-08-21T11:18:02;10.07;;;5.60;;
58123;SDS011;46725;48.068;20.832;2022-08-21T11:20:38;12.57;;;5.95;;
58123;SDS011;46725;48.068;20.832;2022-08-21T11:23:07;12.07;;;5.78;;
58123;SDS011;46725;48.068;20.832;2022-08-21T11:25:39;13.18;;;5.90;;
58123;SDS011;46725;48.068;20.832;2022-08-21T11:28:11;12.73;;;6.20;;
58123;SDS011;46725;48.068;20.832;2022-08-21T11:30:46;15.60;;;6.35;;
58123;SDS011;46725;48.068;20.832;2022-08-21T11:33:25;9.30;;;5.68;;
58123;SDS011;46725;48.068;20.832;2022-08-21T11:35:58;11.77;;;5.32;;
58123;SDS011;46725;48.068;20.832;2022-08-21T11:43:41;7.15;;;4.30;;
58123;SDS011;46725;48.068;20.832;2022-08-21T11:49:01;8.55;;;4.97;;
58123;SDS011;46725;48.068;20.832;2022-08-21T11:51:36;11.75;;;5.32;;
58123;SDS011;46725;48.068;20.832;2022-08-21T11:56:36;13.40;;;5.85;;
58123;SDS011;46725;48.068;20.832;2022-08-21T11:59:08;13.20;;;5.70;;
58123;SDS011;46725;48.068;20.832;2022-08-21T12:01:40;9.95;;;5.50;;
58123;SDS011;46725;48.068;20.832;2022-08-21T12:04:28;8.45;;;5.28;;
58123;SDS011;46725;48.068;20.832;2022-08-21T12:06:55;11.70;;;5.43;;
58123;SDS011;46725;48.068;20.832;2022-08-21T12:11:59;12.32;;;5.68;;
58123;SDS011;46725;48.068;20.832;2022-08-21T12:14:34;10.75;;;5.15;;
58123;SDS011;46725;48.068;20.832;2022-08-21T12:17:04;15.80;;;5.30;;
58123;SDS011;46725;48.068;20.832;2022-08-21T12:19:31;11.45;;;5.50;;
58123;SDS011;46725;48.068;20.832;2022-08-21T12:26:53;10.98;;;4.80;;
58123;SDS011;46725;48.068;20.832;2022-08-21T12:31:53;7.53;;;4.05;;
58123;SDS011;46725;48.068;20.832;2022-08-21T12:34:20;9.57;;;4.78;;
58123;SDS011;46725;48.068;20.832;2022-08-21T12:36:53;9.50;;;4.22;;
58123;SDS011;46725;48.068;20.832;2022-08-21T12:39:26;11.27;;;4.88;;
58123;SDS011;46725;48.068;20.832;2022-08-21T12:41:55;9.63;;;5.20;;
58123;SDS011;46725;48.068;20.832;2022-08-21T12:44:26;11.02;;;3.92;;
58123;SDS011;46725;48.068;20.832;2022-08-21T12:46:56;8.40;;;4.32;;
58123;SDS011;46725;48.068;20.832;2022-08-21T12:49:26;9.00;;;4.07;;
58123;SDS011;46725;48.068;20.832;2022-08-21T12:51:57;9.30;;;4.32;;
58123;SDS011;46725;48.068;20.832;2022-08-21T12:54:28;8.88;;;4.15;;
58123;SDS011;46725;48.068;20.832;2022-08-21T12:59:23;7.95;;;4.32;;
58123;SDS011;46725;48.068;20.832;2022-08-21T13:01:51;10.23;;;4.35;;
58123;SDS011;46725;48.068;20.832;2022-08-21T13:04:21;11.07;;;3.92;;
58123;SDS011;46725;48.068;20.832;2022-08-21T13:06:52;12.77;;;4.35;;
58123;SDS011;46725;48.068;20.832;2022-08-21T13:09:20;9.15;;;3.40;;
58123;SDS011;46725;48.068;20.832;2022-08-21T13:11:48;11.02;;;3.58;;
58123;SDS011;46725;48.068;20.832;2022-08-21T13:14:36;6.65;;;3.20;;
58123;SDS011;46725;48.068;20.832;2022-08-21T13:17:02;9.77;;;3.50;;
58123;SDS011;46725;48.068;20.832;2022-08-21T13:19:29;10.73;;;3.55;;
58123;SDS011;46725;48.068;20.832;2022-08-21T13:21:55;7.40;;;3.45;;
58123;SDS011;46725;48.068;20.832;2022-08-21T13:24:28;8.50;;;3.10;;
58123;SDS011;46725;48.068;20.832;2022-08-21T13:26:56;10.27;;;3.75;;
58123;SDS011;46725;48.068;20.832;2022-08-21T13:29:23;7.55;;;3.72;;
58123;SDS011;46725;48.068;20.832;2022-08-21T13:31:51;8.45;;;3.83;;
58123;SDS011;46725;48.068;20.832;2022-08-21T13:34:22;6.68;;;3.53;;
58123;SDS011;46725;48.068;20.832;2022-08-21T13:36:50;8.70;;;3.53;;
58123;SDS011;46725;48.068;20.832;2022-08-21T13:39:17;7.13;;;3.40;;
58123;SDS011;46725;48.068;20.832;2022-08-21T13:41:46;7.00;;;3.58;;
58123;SDS011;46725;48.068;20.832;2022-08-21T13:44:17;11.60;;;4.03;;
58123;SDS011;46725;48.068;20.832;2022-08-21T13:46:43;8.37;;;3.57;;
58123;SDS011;46725;48.068;20.832;2022-08-21T13:49:10;10.43;;;3.88;;
58123;SDS011;46725;48.068;20.832;2022-08-21T13:51:38;8.80;;;3.40;;
58123;SDS011;46725;48.068;20.832;2022-08-21T13:54:15;8.73;;;3.67;;
58123;SDS011;46725;48.068;20.832;2022-08-21T13:56:45;9.00;;;4.07;;
58123;SDS011;46725;48.068;20.832;2022-08-21T13:59:11;6.95;;;3.42;;
58123;SDS011;46725;48.068;20.832;2022-08-21T14:02:39;11.82;;;3.20;;
58123;SDS011;46725;48.068;20.832;2022-08-21T14:04:35;9.35;;;3.40;;
58123;SDS011;46725;48.068;20.832;2022-08-21T14:07:02;9.60;;;3.63;;
58123;SDS011;46725;48.068;20.832;2022-08-21T14:09:33;7.88;;;3.20;;
58123;SDS011;46725;48.068;20.832;2022-08-21T14:12:03;7.70;;;3.17;;
58123;SDS011;46725;48.068;20.832;2022-08-21T14:14:37;8.60;;;3.15;;
58123;SDS011;46725;48.068;20.832;2022-08-21T14:17:05;5.65;;;3.00;;
58123;SDS011;46725;48.068;20.832;2022-08-21T14:19:41;7.85;;;3.13;;
58123;SDS011;46725;48.068;20.832;2022-08-21T14:27:16;6.78;;;3.03;;
58123;SDS011;46725;48.068;20.832;2022-08-21T14:29:44;8.52;;;2.75;;
58123;SDS011;46725;48.068;20.832;2022-08-21T14:34:36;6.80;;;3.17;;
58123;SDS011;46725;48.068;20.832;2022-08-21T14:37:02;8.57;;;2.75;;
58123;SDS011;46725;48.068;20.832;2022-08-21T14:39:29;6.47;;;2.90;;
58123;SDS011;46725;48.068;20.832;2022-08-21T14:41:55;10.88;;;2.78;;
58123;SDS011;46725;48.068;20.832;2022-08-21T14:44:22;6.93;;;3.03;;
58123;SDS011;46725;48.068;20.832;2022-08-21T14:46:48;5.07;;;2.80;;
58123;SDS011;46725;48.068;20.832;2022-08-21T14:49:14;9.32;;;2.97;;
58123;SDS011;46725;48.068;20.832;2022-08-21T14:51:40;7.47;;;2.70;;
58123;SDS011;46725;48.068;20.832;2022-08-21T14:54:06;6.65;;;2.83;;
58123;SDS011;46725;48.068;20.832;2022-08-21T14:56:33;7.63;;;2.40;;
58123;SDS011;46725;48.068;20.832;2022-08-21T14:59:02;6.95;;;2.63;;
58123;SDS011;46725;48.068;20.832;2022-08-21T15:01:29;8.88;;;2.70;;
58123;SDS011;46725;48.068;20.832;2022-08-21T15:03:55;6.57;;;2.40;;
58123;SDS011;46725;48.068;20.832;2022-08-21T15:06:21;5.78;;;2.20;;
58123;SDS011;46725;48.068;20.832;2022-08-21T15:08:47;6.00;;;2.40;;
58123;SDS011;46725;48.068;20.832;2022-08-21T15:11:18;9.13;;;3.13;;
58123;SDS011;46725;48.068;20.832;2022-08-21T15:13:44;10.60;;;2.70;;
58123;SDS011;46725;48.068;20.832;2022-08-21T15:16:11;10.45;;;2.65;;
58123;SDS011;46725;48.068;20.832;2022-08-21T15:18:37;6.75;;;2.92;;
58123;SDS011;46725;48.068;20.832;2022-08-21T15:21:03;6.13;;;2.42;;
58123;SDS011;46725;48.068;20.832;2022-08-21T15:23:30;8.43;;;2.58;;
58123;SDS011;46725;48.068;20.832;2022-08-21T15:25:56;5.93;;;2.72;;
58123;SDS011;46725;48.068;20.832;2022-08-21T15:28:23;5.85;;;2.38;;
58123;SDS011;46725;48.068;20.832;2022-08-21T15:30:49;10.25;;;3.42;;
58123;SDS011;46725;48.068;20.832;2022-08-21T15:33:16;7.63;;;2.90;;
58123;SDS011;46725;48.068;20.832;2022-08-21T15:35:43;7.85;;;2.83;;
58123;SDS011;46725;48.068;20.832;2022-08-21T15:38:11;8.55;;;3.30;;
58123;SDS011;46725;48.068;20.832;2022-08-21T15:40:37;7.40;;;2.85;;
58123;SDS011;46725;48.068;20.832;2022-08-21T15:43:04;7.07;;;2.40;;
58123;SDS011;46725;48.068;20.832;2022-08-21T15:45:30;9.40;;;3.15;;
58123;SDS011;46725;48.068;20.832;2022-08-21T15:47:57;13.57;;;3.15;;
58123;SDS011;46725;48.068;20.832;2022-08-21T15:50:24;8.40;;;3.10;;
58123;SDS011;46725;48.068;20.832;2022-08-21T15:52:51;7.45;;;2.55;;
58123;SDS011;46725;48.068;20.832;2022-08-21T15:55:17;9.23;;;2.97;;
58123;SDS011;46725;48.068;20.832;2022-08-21T15:57:47;8.10;;;2.95;;
58123;SDS011;46725;48.068;20.832;2022-08-21T16:00:22;7.20;;;3.28;;
58123;SDS011;46725;48.068;20.832;2022-08-21T16:02:50;8.23;;;3.05;;
58123;SDS011;46725;48.068;20.832;2022-08-21T16:05:18;8.15;;;2.72;;
58123;SDS011;46725;48.068;20.832;2022-08-21T16:07:45;8.48;;;2.30;;
58123;SDS011;46725;48.068;20.832;2022-08-21T16:10:12;8.20;;;3.20;;